createdAt,value
2023-02-02T00:01:14.772Z,7.60
2023-02-02T00:03:42.314Z,7.90
2023-02-02T00:06:09.855Z,7.90
2023-02-02T00:08:37.415Z,7.80
2023-02-02T00:11:04.962Z,7.70
2023-02-02T00:13:32.506Z,7.60
2023-02-02T00:16:01.180Z,7.60
2023-02-02T00:18:28.692Z,7.50
2023-02-02T00:20:57.005Z,7.40
2023-02-02T00:23:24.588Z,7.40
2023-02-02T00:25:52.123Z,7.40
2023-02-02T00:28:19.645Z,7.40
2023-02-02T00:30:47.983Z,7.60
2023-02-02T00:33:15.526Z,7.50
2023-02-02T00:35:43.060Z,7.60
2023-02-02T00:38:10.661Z,7.80
2023-02-02T00:40:38.195Z,7.70
2023-02-02T00:43:05.718Z,7.70
2023-02-02T00:45:34.085Z,7.50
2023-02-02T00:48:01.614Z,7.50
2023-02-02T00:50:29.128Z,7.50
2023-02-02T00:52:56.693Z,7.60
2023-02-02T00:55:24.489Z,7.60
2023-02-02T00:57:51.738Z,7.60
2023-02-02T01:00:19.370Z,7.50
2023-02-02T01:02:46.896Z,7.50
2023-02-02T01:05:14.456Z,7.50
2023-02-02T01:07:42.164Z,7.50
2023-02-02T01:10:09.815Z,7.60
2023-02-02T01:12:37.348Z,7.60
2023-02-02T01:15:05.721Z,7.50
2023-02-02T01:17:33.248Z,7.50
2023-02-02T01:20:00.780Z,7.50
2023-02-02T01:22:28.334Z,7.50
2023-02-02T01:24:55.876Z,7.40
2023-02-02T01:27:23.412Z,7.40
2023-02-02T01:29:50.959Z,7.40
2023-02-02T01:32:18.503Z,7.40
2023-02-02T01:34:46.048Z,7.40
2023-02-02T01:37:13.603Z,7.60
2023-02-02T01:39:41.135Z,7.60
2023-02-02T01:42:14.804Z,7.60
2023-02-02T01:45:01.253Z,7.60
2023-02-02T01:47:28.787Z,7.50
2023-02-02T01:49:56.312Z,7.50
2023-02-02T01:52:23.889Z,7.50
2023-02-02T01:54:52.177Z,7.90
2023-02-02T01:57:26.132Z,7.90
2023-02-02T01:59:54.284Z,7.80
2023-02-02T02:02:21.848Z,7.80
2023-02-02T02:04:50.134Z,7.70
2023-02-02T02:07:17.714Z,7.60
2023-02-02T02:09:45.258Z,7.60
2023-02-02T02:12:15.563Z,7.60
2023-02-02T02:15:01.052Z,7.70
2023-02-02T02:17:43.702Z,7.70
2023-02-02T02:20:53.836Z,7.90
2023-02-02T02:23:48.230Z,8.10
2023-02-02T02:26:53.069Z,8.40
2023-02-02T02:29:35.585Z,8.50
2023-02-02T02:32:09.186Z,8.60
2023-02-02T02:35:13.568Z,8.40
2023-02-02T02:37:47.170Z,8.20
2023-02-02T02:40:23.592Z,8.30
2023-02-02T02:43:01.137Z,8.10
2023-02-02T02:45:28.669Z,8.00
2023-02-02T02:47:56.204Z,7.90
2023-02-02T02:50:25.522Z,8.00
2023-02-02T02:52:53.805Z,8.00
2023-02-02T02:55:21.396Z,8.00
2023-02-02T02:58:08.291Z,7.80
2023-02-02T03:00:38.958Z,7.80
2023-02-02T03:03:09.425Z,7.70
2023-02-02T03:05:58.584Z,7.60
2023-02-02T03:08:26.896Z,7.60
2023-02-02T03:10:54.647Z,7.60
2023-02-02T03:13:22.752Z,7.60
2023-02-02T03:15:50.333Z,7.60
2023-02-02T03:18:17.828Z,7.70
2023-02-02T03:20:46.179Z,7.70
2023-02-02T03:23:13.708Z,7.70
2023-02-02T03:25:41.264Z,7.70
2023-02-02T03:28:09.111Z,7.60
2023-02-02T03:30:36.683Z,7.60
2023-02-02T03:33:04.936Z,7.60
2023-02-02T03:35:32.518Z,7.60
2023-02-02T03:38:00.039Z,7.60
2023-02-02T03:40:28.342Z,7.60
2023-02-02T03:42:56.198Z,7.60
2023-02-02T03:45:24.152Z,7.60
2023-02-02T03:47:52.029Z,7.50
2023-02-02T03:50:19.600Z,7.50
2023-02-02T03:52:47.879Z,7.50
2023-02-02T03:55:15.405Z,7.50
2023-02-02T03:57:43.751Z,7.50
2023-02-02T04:00:11.478Z,7.50
2023-02-02T04:02:39.890Z,7.50
2023-02-02T04:05:08.344Z,7.50
2023-02-02T04:07:35.877Z,7.50
2023-02-02T04:10:04.186Z,7.50
2023-02-02T04:12:31.849Z,7.50
2023-02-02T04:14:59.385Z,7.50
2023-02-02T04:17:26.900Z,7.50
2023-02-02T04:19:54.458Z,7.50
2023-02-02T04:22:22.050Z,7.50
2023-02-02T04:24:49.591Z,7.50
2023-02-02T04:27:17.122Z,7.40
2023-02-02T04:29:44.644Z,7.40
2023-02-02T04:32:12.188Z,7.40
2023-02-02T04:34:40.522Z,7.40
2023-02-02T04:37:08.087Z,7.40
2023-02-02T04:39:35.591Z,7.40
2023-02-02T04:42:03.141Z,7.40
2023-02-02T04:44:30.689Z,7.40
2023-02-02T04:46:58.978Z,7.30
2023-02-02T04:49:26.540Z,7.30
2023-02-02T04:51:54.825Z,7.40
2023-02-02T04:54:22.337Z,7.30
2023-02-02T04:56:49.927Z,7.40
2023-02-02T04:59:17.472Z,7.40
2023-02-02T05:01:44.996Z,7.50
2023-02-02T05:04:12.737Z,7.60
2023-02-02T05:06:40.992Z,7.70
2023-02-02T05:09:08.515Z,7.70
2023-02-02T05:11:36.113Z,7.70
2023-02-02T05:14:03.636Z,7.70
2023-02-02T05:16:31.165Z,7.60
2023-02-02T05:18:58.744Z,7.50
2023-02-02T05:21:26.272Z,7.50
2023-02-02T05:23:53.806Z,7.50
2023-02-02T05:26:24.166Z,7.40
2023-02-02T05:28:51.643Z,7.40
2023-02-02T05:31:19.232Z,7.40
2023-02-02T05:33:46.741Z,7.40
2023-02-02T05:36:14.274Z,7.60
2023-02-02T05:38:41.798Z,7.60
2023-02-02T05:41:10.441Z,7.50
2023-02-02T05:43:37.992Z,7.50
2023-02-02T05:46:06.346Z,7.50
2023-02-02T05:48:33.844Z,7.50
2023-02-02T05:51:07.593Z,7.50
2023-02-02T05:53:35.123Z,7.40
2023-02-02T05:56:02.707Z,7.40
2023-02-02T05:58:31.008Z,7.40
2023-02-02T06:00:58.537Z,7.40
2023-02-02T06:03:26.977Z,7.40
2023-02-02T06:05:54.429Z,7.30
2023-02-02T06:08:21.968Z,7.40
2023-02-02T06:10:49.575Z,7.50
2023-02-02T06:13:17.106Z,7.60
2023-02-02T06:15:44.706Z,7.50
2023-02-02T06:18:12.249Z,7.70
2023-02-02T06:20:39.762Z,7.60
2023-02-02T06:23:07.289Z,7.60
2023-02-02T06:25:35.645Z,7.70
2023-02-02T06:28:03.161Z,7.70
2023-02-02T06:30:30.704Z,7.60
2023-02-02T06:32:58.269Z,7.50
2023-02-02T06:35:26.076Z,7.50
2023-02-02T06:37:54.093Z,7.40
2023-02-02T06:40:21.680Z,7.40
2023-02-02T06:42:49.211Z,7.40
2023-02-02T06:45:16.743Z,7.40
2023-02-02T06:47:44.349Z,7.40
2023-02-02T06:50:11.954Z,7.30
2023-02-02T06:52:39.478Z,7.40
2023-02-02T06:55:07.101Z,7.40
2023-02-02T06:57:34.646Z,7.40
2023-02-02T07:00:03.007Z,7.40
2023-02-02T07:02:30.622Z,7.40
2023-02-02T07:04:58.887Z,7.70
2023-02-02T07:07:26.427Z,7.70
2023-02-02T07:09:58.394Z,8.00
2023-02-02T07:12:22.316Z,7.90
2023-02-02T07:14:49.851Z,7.90
2023-02-02T07:17:17.416Z,8.10
2023-02-02T07:19:44.939Z,8.30
2023-02-02T07:22:13.272Z,8.10
2023-02-02T07:24:40.858Z,8.10
2023-02-02T07:27:08.381Z,8.00
2023-02-02T07:29:35.908Z,7.90
2023-02-02T07:32:03.491Z,7.80
2023-02-02T07:34:31.037Z,8.00
2023-02-02T07:36:58.575Z,8.00
2023-02-02T07:39:26.912Z,7.80
2023-02-02T07:41:54.436Z,7.80
2023-02-02T07:44:21.967Z,7.80
2023-02-02T07:46:50.440Z,7.70
2023-02-02T07:49:17.859Z,7.70
2023-02-02T07:51:47.666Z,7.70
2023-02-02T07:54:12.977Z,7.70
2023-02-02T07:56:40.532Z,7.60
2023-02-02T07:59:08.036Z,7.80
2023-02-02T08:01:36.411Z,7.70
2023-02-02T08:04:03.930Z,7.70
2023-02-02T08:06:31.463Z,7.70
2023-02-02T08:08:59.042Z,7.70
2023-02-02T08:11:26.587Z,7.60
2023-02-02T08:13:56.807Z,7.60
2023-02-02T08:16:24.437Z,7.60
2023-02-02T08:18:51.931Z,7.60
2023-02-02T08:21:19.485Z,7.60
2023-02-02T08:23:47.068Z,7.70
2023-02-02T08:26:17.521Z,7.70
2023-02-02T08:28:45.021Z,7.60
2023-02-02T08:31:15.611Z,7.80
2023-02-02T08:33:43.126Z,7.80
2023-02-02T08:36:10.653Z,7.80
2023-02-02T08:38:38.236Z,7.80
2023-02-02T08:41:08.425Z,7.80
2023-02-02T08:43:36.756Z,7.80
2023-02-02T08:46:05.722Z,7.80
2023-02-02T08:48:31.878Z,7.80
2023-02-02T08:50:59.389Z,7.80
2023-02-02T08:53:26.988Z,7.90
2023-02-02T08:56:03.734Z,7.90
2023-02-02T08:58:31.313Z,7.80
2023-02-02T09:01:04.883Z,7.80
2023-02-02T09:03:32.368Z,7.80
2023-02-02T09:05:59.939Z,7.80
2023-02-02T09:08:27.496Z,7.80
2023-02-02T09:10:54.992Z,7.80
2023-02-02T09:13:23.449Z,7.80
2023-02-02T09:15:50.884Z,7.80
2023-02-02T09:18:18.441Z,7.80
2023-02-02T09:20:46.033Z,8.00
2023-02-02T09:23:13.568Z,8.00
2023-02-02T09:25:41.108Z,8.00
2023-02-02T09:28:08.668Z,8.20
2023-02-02T09:30:36.221Z,8.10
2023-02-02T09:33:03.751Z,8.00
2023-02-02T09:35:32.364Z,7.80
2023-02-02T09:37:59.900Z,7.80
2023-02-02T09:40:28.214Z,7.80
2023-02-02T09:43:14.389Z,7.70
2023-02-02T09:45:41.936Z,7.70
2023-02-02T09:48:09.438Z,7.70
2023-02-02T09:50:42.764Z,7.70
2023-02-02T09:53:19.569Z,7.70
2023-02-02T09:55:47.135Z,7.80
2023-02-02T09:58:33.752Z,7.80
2023-02-02T10:01:04.248Z,7.80
2023-02-02T10:03:56.548Z,7.80
2023-02-02T10:06:39.084Z,7.80
2023-02-02T10:09:34.582Z,7.90
2023-02-02T10:12:14.033Z,7.90
2023-02-02T10:14:41.596Z,8.00
2023-02-02T10:17:09.103Z,8.30
2023-02-02T10:19:36.680Z,8.30
2023-02-02T10:22:13.328Z,8.60
2023-02-02T10:24:40.858Z,8.60
2023-02-02T10:27:15.202Z,8.50
2023-02-02T10:29:57.399Z,8.50
2023-02-02T10:32:25.271Z,8.50
2023-02-02T10:35:13.100Z,8.50
2023-02-02T10:37:51.557Z,8.60
2023-02-02T10:40:21.892Z,8.60
2023-02-02T10:43:32.253Z,8.60
2023-02-02T10:45:59.826Z,8.70
2023-02-02T10:48:30.020Z,9.00
2023-02-02T10:50:57.612Z,9.10
2023-02-02T10:53:25.123Z,9.10
2023-02-02T10:56:07.425Z,9.10
2023-02-02T10:58:58.769Z,9.00
2023-02-02T11:01:26.375Z,9.00
2023-02-02T11:03:54.663Z,9.00
2023-02-02T11:06:40.080Z,9.00
2023-02-02T11:09:07.619Z,8.90
2023-02-02T11:11:35.172Z,8.90
2023-02-02T11:14:08.211Z,8.90
2023-02-02T11:16:43.145Z,8.80
2023-02-02T11:19:03.287Z,8.80
2023-02-02T11:21:33.379Z,8.70
2023-02-02T11:24:06.892Z,8.70
2023-02-02T11:26:49.501Z,8.60
2023-02-02T11:29:17.020Z,8.60
2023-02-02T11:31:45.348Z,8.60
2023-02-02T11:34:24.542Z,8.60
2023-02-02T11:37:01.027Z,8.60
2023-02-02T11:39:28.562Z,8.70
2023-02-02T11:41:59.886Z,8.70
2023-02-02T11:44:27.433Z,8.70
2023-02-02T11:46:55.021Z,8.70
2023-02-02T11:49:22.607Z,8.70
2023-02-02T11:51:56.116Z,9.00
2023-02-02T11:54:23.638Z,9.10
2023-02-02T11:56:51.974Z,9.00
2023-02-02T11:59:28.407Z,9.00
2023-02-02T12:02:20.963Z,9.10
2023-02-02T12:04:48.430Z,9.00
2023-02-02T12:07:18.646Z,9.00
2023-02-02T12:09:46.230Z,9.00
2023-02-02T12:12:31.536Z,9.00
2023-02-02T12:15:09.244Z,9.00
2023-02-02T12:17:40.340Z,9.00
2023-02-02T12:20:13.302Z,9.00
2023-02-02T12:22:49.342Z,9.10
2023-02-02T12:25:37.939Z,9.10
2023-02-02T12:28:30.080Z,9.10
2023-02-02T12:31:03.135Z,9.10
2023-02-02T12:33:34.452Z,9.10
2023-02-02T12:36:21.459Z,9.10
2023-02-02T12:38:51.707Z,9.10
2023-02-02T12:41:31.138Z,9.10
2023-02-02T12:44:16.786Z,9.10
2023-02-02T12:46:46.822Z,9.10
2023-02-02T12:49:27.730Z,9.40
2023-02-02T12:52:04.028Z,9.40
2023-02-02T12:54:54.229Z,9.40
2023-02-02T12:57:41.581Z,9.40
2023-02-02T13:00:25.113Z,9.30
2023-02-02T13:03:01.326Z,9.30
2023-02-02T13:05:46.477Z,9.30
2023-02-02T13:08:14.011Z,9.30
2023-02-02T13:10:44.482Z,9.20
2023-02-02T13:13:12.097Z,9.20
2023-02-02T13:15:39.598Z,9.20
2023-02-02T13:18:07.141Z,9.10
2023-02-02T13:20:37.825Z,9.10
2023-02-02T13:23:05.363Z,9.10
2023-02-02T13:25:32.892Z,9.10
2023-02-02T13:28:00.468Z,9.00
2023-02-02T13:30:31.172Z,9.30
2023-02-02T13:33:01.548Z,9.30
2023-02-02T13:35:37.879Z,9.40
2023-02-02T13:38:20.529Z,9.40
2023-02-02T13:40:48.116Z,9.50
2023-02-02T13:43:36.724Z,9.70
2023-02-02T13:46:16.326Z,9.60
2023-02-02T13:49:01.570Z,9.40
2023-02-02T13:51:29.103Z,9.20
2023-02-02T13:54:08.897Z,9.40
2023-02-02T13:56:48.442Z,9.40
2023-02-02T13:59:24.953Z,9.50
2023-02-02T14:01:52.675Z,9.70
2023-02-02T14:04:23.129Z,9.80
2023-02-02T14:06:59.693Z,9.60
2023-02-02T14:09:27.214Z,9.40
2023-02-02T14:11:55.531Z,9.20
2023-02-02T14:14:32.053Z,9.20
2023-02-02T14:17:02.763Z,9.10
2023-02-02T14:19:36.088Z,9.00
2023-02-02T14:22:10.437Z,9.10
2023-02-02T14:24:38.003Z,9.10
2023-02-02T14:27:08.370Z,9.10
2023-02-02T14:29:38.314Z,9.00
2023-02-02T14:32:27.079Z,9.00
2023-02-02T14:34:54.618Z,8.90
2023-02-02T14:37:24.926Z,8.80
2023-02-02T14:40:07.225Z,8.80
2023-02-02T14:43:26.480Z,8.80
2023-02-02T14:46:15.823Z,8.70
2023-02-02T14:48:55.607Z,9.00
2023-02-02T14:51:23.192Z,9.20
2023-02-02T14:53:54.151Z,9.20
2023-02-02T14:56:21.697Z,9.10
2023-02-02T14:58:51.828Z,9.10
2023-02-02T15:01:26.095Z,8.90
2023-02-02T15:04:22.193Z,8.80
2023-02-02T15:06:49.725Z,8.80
2023-02-02T15:09:23.451Z,8.70
2023-02-02T15:12:01.391Z,8.60
2023-02-02T15:14:51.877Z,8.60
2023-02-02T15:17:37.700Z,8.60
2023-02-02T15:20:08.752Z,8.80
2023-02-02T15:22:42.054Z,8.80
2023-02-02T15:25:24.781Z,8.80
2023-02-02T15:28:09.859Z,8.70
2023-02-02T15:30:37.452Z,8.60
2023-02-02T15:33:04.957Z,8.60
2023-02-02T15:35:32.547Z,8.50
2023-02-02T15:38:00.105Z,8.50
2023-02-02T15:40:27.649Z,8.40
2023-02-02T15:43:00.976Z,8.40
2023-02-02T15:45:31.991Z,8.40
2023-02-02T15:47:59.116Z,8.40
2023-02-02T15:50:26.659Z,8.60
2023-02-02T15:52:54.981Z,8.60
2023-02-02T15:55:22.555Z,8.60
2023-02-02T15:57:51.656Z,8.60
2023-02-02T16:00:24.611Z,8.40
2023-02-02T16:02:57.919Z,8.40
2023-02-02T16:05:25.865Z,8.40
2023-02-02T16:08:03.759Z,8.40
2023-02-02T16:10:20.751Z,8.30
2023-02-02T16:12:49.045Z,8.30
2023-02-02T16:15:16.579Z,8.30
2023-02-02T16:17:44.933Z,8.30
2023-02-02T16:20:12.688Z,8.20
2023-02-02T16:22:40.209Z,8.20
2023-02-02T16:25:08.033Z,8.20
2023-02-02T16:27:35.554Z,8.20
2023-02-02T16:30:08.624Z,8.20
2023-02-02T16:32:36.207Z,8.50
2023-02-02T16:35:03.769Z,8.50
2023-02-02T16:37:31.323Z,8.40
2023-02-02T16:40:16.999Z,8.40
2023-02-02T16:42:44.530Z,8.30
2023-02-02T16:45:34.659Z,8.20
2023-02-02T16:48:02.733Z,8.20
2023-02-02T16:50:30.254Z,8.20
2023-02-02T16:53:01.565Z,8.20
2023-02-02T16:55:43.221Z,8.10
2023-02-02T16:57:56.600Z,8.20
2023-02-02T17:00:27.901Z,8.10
2023-02-02T17:03:01.390Z,8.10
2023-02-02T17:05:29.039Z,8.10
2023-02-02T17:07:59.639Z,8.10
2023-02-02T17:10:27.949Z,8.10
2023-02-02T17:12:55.473Z,8.00
2023-02-02T17:15:31.618Z,8.00
2023-02-02T17:17:57.775Z,8.00
2023-02-02T17:20:25.294Z,8.00
2023-02-02T17:23:04.585Z,8.10
2023-02-02T17:25:38.086Z,8.00
2023-02-02T17:28:05.606Z,8.30
2023-02-02T17:30:33.987Z,8.30
2023-02-02T17:33:01.489Z,8.20
2023-02-02T17:35:37.242Z,8.20
2023-02-02T17:37:56.908Z,8.20
2023-02-02T17:40:24.812Z,8.10
2023-02-02T17:42:51.979Z,8.20
2023-02-02T17:45:25.462Z,8.10
2023-02-02T17:47:52.674Z,8.10
2023-02-02T17:50:20.215Z,8.10
2023-02-02T17:52:48.550Z,8.10
2023-02-02T17:55:21.826Z,8.10
2023-02-02T17:57:49.362Z,8.20
2023-02-02T18:00:16.914Z,8.40
2023-02-02T18:02:44.464Z,8.70
2023-02-02T18:05:11.967Z,8.70
2023-02-02T18:07:39.541Z,8.60
2023-02-02T18:10:07.100Z,8.60
2023-02-02T18:12:37.258Z,8.70
2023-02-02T18:15:04.821Z,8.70
2023-02-02T18:17:34.040Z,8.90
2023-02-02T18:20:00.710Z,9.00
2023-02-02T18:22:28.243Z,9.00
2023-02-02T18:24:55.769Z,8.90
2023-02-02T18:27:23.283Z,8.80
2023-02-02T18:29:51.443Z,8.70
2023-02-02T18:32:18.967Z,8.60
2023-02-02T18:34:46.505Z,8.60
2023-02-02T18:37:14.850Z,8.50
2023-02-02T18:39:42.392Z,8.50
2023-02-02T18:42:10.004Z,8.40
2023-02-02T18:44:38.383Z,8.40
2023-02-02T18:47:06.670Z,8.40
2023-02-02T18:49:34.191Z,8.40
2023-02-02T18:52:01.766Z,8.40
2023-02-02T18:54:29.359Z,8.40
2023-02-02T18:56:56.898Z,8.40
2023-02-02T18:59:24.480Z,8.30
2023-02-02T19:01:52.038Z,8.30
2023-02-02T19:04:20.317Z,8.30
2023-02-02T19:07:06.025Z,8.30
2023-02-02T19:09:33.568Z,8.30
2023-02-02T19:12:01.094Z,8.30
2023-02-02T19:14:34.453Z,8.30
2023-02-02T19:17:14.402Z,8.30
2023-02-02T19:19:41.977Z,8.20
2023-02-02T19:22:24.452Z,8.20
2023-02-02T19:24:52.003Z,8.50
2023-02-02T19:27:22.348Z,8.50
2023-02-02T19:29:49.922Z,8.70
2023-02-02T19:32:23.580Z,8.70
2023-02-02T19:34:54.040Z,8.60
2023-02-02T19:37:24.286Z,8.70
2023-02-02T19:39:55.433Z,8.90
2023-02-02T19:42:23.731Z,8.80
2023-02-02T19:44:51.303Z,8.80
2023-02-02T19:47:21.808Z,8.70
2023-02-02T19:49:50.176Z,8.60
2023-02-02T19:52:17.654Z,8.60
2023-02-02T19:54:50.943Z,8.50
2023-02-02T19:57:24.625Z,8.50
2023-02-02T19:59:52.145Z,8.50
2023-02-02T20:02:25.424Z,8.50
2023-02-02T20:05:10.956Z,8.40
2023-02-02T20:07:38.525Z,8.40
2023-02-02T20:10:21.884Z,8.60
2023-02-02T20:12:49.464Z,8.60
2023-02-02T20:15:31.638Z,8.70
2023-02-02T20:17:59.634Z,8.60
2023-02-02T20:20:29.952Z,8.60
2023-02-02T20:22:58.229Z,8.50
2023-02-02T20:25:25.779Z,8.50
2023-02-02T20:27:53.291Z,8.50
2023-02-02T20:30:27.722Z,8.50
2023-02-02T20:32:54.915Z,8.40
2023-02-02T20:35:37.491Z,8.40
2023-02-02T20:38:24.368Z,8.40
2023-02-02T20:40:51.891Z,8.40
2023-02-02T20:43:19.447Z,8.30
2023-02-02T20:45:47.067Z,8.50
2023-02-02T20:48:14.554Z,8.50
2023-02-02T20:50:42.075Z,8.50
2023-02-02T20:53:10.428Z,8.40
2023-02-02T20:55:38.054Z,8.40
2023-02-02T20:58:06.352Z,8.40
2023-02-02T21:00:33.923Z,8.30
2023-02-02T21:03:01.453Z,8.30
2023-02-02T21:05:29.001Z,8.30
2023-02-02T21:07:57.598Z,8.30
2023-02-02T21:10:25.492Z,8.20
2023-02-02T21:12:52.686Z,8.20
2023-02-02T21:15:22.053Z,8.20
2023-02-02T21:17:49.572Z,8.20
2023-02-02T21:20:17.876Z,8.20
2023-02-02T21:22:45.419Z,8.20
2023-02-02T21:25:12.945Z,8.20
2023-02-02T21:27:44.024Z,8.20
2023-02-02T21:30:11.903Z,8.20
2023-02-02T21:32:39.423Z,8.20
2023-02-02T21:35:07.708Z,8.20
2023-02-02T21:37:37.576Z,8.20
2023-02-02T21:40:05.101Z,8.20
2023-02-02T21:42:32.637Z,8.20
2023-02-02T21:45:19.676Z,8.40
2023-02-02T21:47:47.210Z,8.40
2023-02-02T21:50:14.802Z,8.40
2023-02-02T21:52:42.405Z,8.40
2023-02-02T21:55:33.800Z,8.40
2023-02-02T21:58:01.387Z,8.40
2023-02-02T22:00:29.678Z,8.60
2023-02-02T22:02:58.010Z,8.60
2023-02-02T22:05:25.595Z,8.60
2023-02-02T22:07:53.084Z,8.50
2023-02-02T22:10:35.389Z,8.50
2023-02-02T22:13:02.912Z,8.50
2023-02-02T22:15:30.533Z,8.70
2023-02-02T22:18:01.616Z,8.70
2023-02-02T22:20:34.940Z,8.80
2023-02-02T22:23:03.541Z,8.70
2023-02-02T22:25:33.925Z,8.70
2023-02-02T22:28:04.167Z,8.60
2023-02-02T22:30:40.387Z,8.60
2023-02-02T22:33:08.633Z,8.50
2023-02-02T22:35:36.144Z,8.50
2023-02-02T22:38:03.709Z,8.50
2023-02-02T22:40:31.231Z,8.40
2023-02-02T22:42:58.765Z,8.40
2023-02-02T22:45:26.312Z,8.60
2023-02-02T22:47:53.826Z,8.80
2023-02-02T22:50:21.372Z,8.80
2023-02-02T22:52:48.947Z,8.70
2023-02-02T22:55:16.506Z,8.60
2023-02-02T22:57:44.027Z,8.80
2023-02-02T23:00:11.724Z,9.00
2023-02-02T23:02:39.319Z,8.90
2023-02-02T23:05:06.849Z,8.80
2023-02-02T23:07:34.445Z,8.70
2023-02-02T23:10:01.935Z,8.70
2023-02-02T23:12:29.461Z,8.60
2023-02-02T23:14:57.041Z,8.60
2023-02-02T23:17:24.594Z,8.50
2023-02-02T23:19:52.865Z,8.70
2023-02-02T23:22:20.428Z,8.70
2023-02-02T23:24:47.949Z,8.60
2023-02-02T23:27:15.475Z,8.60
2023-02-02T23:29:43.053Z,8.60
2023-02-02T23:32:10.575Z,8.50
2023-02-02T23:34:38.103Z,8.50
2023-02-02T23:37:06.434Z,8.70
2023-02-02T23:39:33.957Z,8.70
2023-02-02T23:42:01.484Z,8.70
2023-02-02T23:44:30.119Z,8.60
2023-02-02T23:46:57.716Z,8.60
2023-02-02T23:49:25.938Z,8.50
2023-02-02T23:51:53.541Z,8.50
2023-02-02T23:54:21.056Z,8.50
2023-02-02T23:56:48.595Z,8.40
2023-02-02T23:59:17.426Z,8.40
